sensor_id;sensor_type;location;lat;lon;timestamp;pressure;altitude;pressure_sealevel;temperature;humidity
20971;BME280;10644;48.834;10.088;2022-09-09T00:02:20;96370.81;;;18.69;58.38
20971;BME280;10644;48.834;10.088;2022-09-09T00:05:27;96378.69;;;18.96;57.19
20971;BME280;10644;48.834;10.088;2022-09-09T00:08:01;96370.16;;;19.13;56.83
20971;BME280;10644;48.834;10.088;2022-09-09T00:10:30;96370.16;;;19.04;57.08
20971;BME280;10644;48.834;10.088;2022-09-09T00:16:12;96358.69;;;19.06;56.26
20971;BME280;10644;48.834;10.088;2022-09-09T00:22:19;96356.38;;;19.03;56.57
20971;BME280;10644;48.834;10.088;2022-09-09T00:24:57;96352.53;;;18.71;57.32
20971;BME280;10644;48.834;10.088;2022-09-09T00:27:42;96357.94;;;18.77;57.32
20971;BME280;10644;48.834;10.088;2022-09-09T00:30:31;96358.16;;;19.03;56.40
20971;BME280;10644;48.834;10.088;2022-09-09T00:36:16;96359.22;;;18.54;58.13
20971;BME280;10644;48.834;10.088;2022-09-09T00:38:49;96355.03;;;18.44;58.12
20971;BME280;10644;48.834;10.088;2022-09-09T00:47:29;96348.88;;;17.88;60.30
20971;BME280;10644;48.834;10.088;2022-09-09T00:50:03;96361.00;;;17.97;60.15
20971;BME280;10644;48.834;10.088;2022-09-09T00:52:41;96364.00;;;17.73;60.61
20971;BME280;10644;48.834;10.088;2022-09-09T00:55:16;96355.06;;;17.57;60.97
20971;BME280;10644;48.834;10.088;2022-09-09T00:57:51;96369.88;;;17.36;61.50
20971;BME280;10644;48.834;10.088;2022-09-09T01:04:01;96377.72;;;17.25;62.45
20971;BME280;10644;48.834;10.088;2022-09-09T01:06:38;96359.34;;;16.98;63.24
20971;BME280;10644;48.834;10.088;2022-09-09T01:12:17;96357.56;;;16.98;63.31
20971;BME280;10644;48.834;10.088;2022-09-09T01:14:48;96360.91;;;17.10;62.59
20971;BME280;10644;48.834;10.088;2022-09-09T01:17:58;96363.41;;;16.91;63.76
20971;BME280;10644;48.834;10.088;2022-09-09T01:20:39;96358.56;;;17.07;62.71
20971;BME280;10644;48.834;10.088;2022-09-09T01:23:32;96361.31;;;17.05;63.00
20971;BME280;10644;48.834;10.088;2022-09-09T01:26:35;96363.94;;;17.24;62.24
20971;BME280;10644;48.834;10.088;2022-09-09T01:29:16;96355.97;;;17.37;62.05
20971;BME280;10644;48.834;10.088;2022-09-09T01:38:15;96351.31;;;18.18;59.64
20971;BME280;10644;48.834;10.088;2022-09-09T01:40:46;96342.44;;;18.30;59.10
20971;BME280;10644;48.834;10.088;2022-09-09T01:46:22;96344.91;;;18.22;58.96
20971;BME280;10644;48.834;10.088;2022-09-09T01:49:09;96351.34;;;18.37;58.77
20971;BME280;10644;48.834;10.088;2022-09-09T01:51:42;96346.41;;;18.53;58.29
20971;BME280;10644;48.834;10.088;2022-09-09T01:54:27;96350.50;;;18.46;58.29
20971;BME280;10644;48.834;10.088;2022-09-09T02:00:07;96348.72;;;18.18;58.97
20971;BME280;10644;48.834;10.088;2022-09-09T02:08:55;96349.53;;;18.66;57.56
20971;BME280;10644;48.834;10.088;2022-09-09T02:11:23;96340.53;;;18.51;57.56
20971;BME280;10644;48.834;10.088;2022-09-09T02:14:10;96357.31;;;18.66;57.42
20971;BME280;10644;48.834;10.088;2022-09-09T02:17:01;96353.94;;;18.46;56.84
20971;BME280;10644;48.834;10.088;2022-09-09T02:19:32;96350.66;;;18.54;57.21
20971;BME280;10644;48.834;10.088;2022-09-09T02:22:00;96345.03;;;18.30;57.71
20971;BME280;10644;48.834;10.088;2022-09-09T02:24:37;96355.28;;;18.03;59.00
20971;BME280;10644;48.834;10.088;2022-09-09T02:27:06;96354.03;;;17.69;59.68
20971;BME280;10644;48.834;10.088;2022-09-09T02:29:40;96353.72;;;17.23;61.43
20971;BME280;10644;48.834;10.088;2022-09-09T02:32:15;96346.09;;;16.91;62.02
20971;BME280;10644;48.834;10.088;2022-09-09T02:34:48;96336.81;;;16.59;63.53
20971;BME280;10644;48.834;10.088;2022-09-09T02:37:27;96342.47;;;16.43;63.47
20971;BME280;10644;48.834;10.088;2022-09-09T02:40:05;96353.09;;;16.50;63.72
20971;BME280;10644;48.834;10.088;2022-09-09T02:42:55;96341.56;;;16.54;63.54
20971;BME280;10644;48.834;10.088;2022-09-09T02:45:28;96340.66;;;16.44;64.40
20971;BME280;10644;48.834;10.088;2022-09-09T02:48:17;96340.47;;;16.56;63.83
20971;BME280;10644;48.834;10.088;2022-09-09T02:51:10;96342.22;;;16.56;63.95
20971;BME280;10644;48.834;10.088;2022-09-09T02:56:52;96329.75;;;16.61;63.62
20971;BME280;10644;48.834;10.088;2022-09-09T02:59:25;96346.16;;;16.71;63.31
20971;BME280;10644;48.834;10.088;2022-09-09T03:01:59;96336.16;;;16.87;62.64
20971;BME280;10644;48.834;10.088;2022-09-09T03:04:27;96338.75;;;17.26;61.59
20971;BME280;10644;48.834;10.088;2022-09-09T03:06:52;96336.38;;;17.44;61.11
20971;BME280;10644;48.834;10.088;2022-09-09T03:09:18;96325.66;;;17.67;60.24
20971;BME280;10644;48.834;10.088;2022-09-09T03:11:50;96331.66;;;17.68;59.88
20971;BME280;10644;48.834;10.088;2022-09-09T03:14:16;96355.25;;;17.74;60.26
20971;BME280;10644;48.834;10.088;2022-09-09T03:16:41;96329.63;;;17.81;59.77
20971;BME280;10644;48.834;10.088;2022-09-09T03:19:10;96342.63;;;17.41;60.71
20971;BME280;10644;48.834;10.088;2022-09-09T03:21:43;96343.88;;;17.07;61.54
20971;BME280;10644;48.834;10.088;2022-09-09T03:24:16;96351.22;;;17.12;61.62
20971;BME280;10644;48.834;10.088;2022-09-09T03:26:52;96343.66;;;17.20;61.32
20971;BME280;10644;48.834;10.088;2022-09-09T03:29:17;96346.53;;;16.96;62.47
20971;BME280;10644;48.834;10.088;2022-09-09T03:31:45;96350.94;;;17.05;62.33
20971;BME280;10644;48.834;10.088;2022-09-09T03:34:11;96346.06;;;17.12;62.28
20971;BME280;10644;48.834;10.088;2022-09-09T03:36:46;96337.34;;;17.13;61.85
20971;BME280;10644;48.834;10.088;2022-09-09T03:42:15;96328.25;;;17.67;60.40
20971;BME280;10644;48.834;10.088;2022-09-09T03:44:44;96326.63;;;17.76;59.95
20971;BME280;10644;48.834;10.088;2022-09-09T03:47:17;96332.06;;;17.73;59.72
20971;BME280;10644;48.834;10.088;2022-09-09T03:49:43;96328.75;;;17.52;60.67
20971;BME280;10644;48.834;10.088;2022-09-09T03:52:10;96331.94;;;17.25;61.05
20971;BME280;10644;48.834;10.088;2022-09-09T03:54:47;96335.22;;;17.27;61.08
20971;BME280;10644;48.834;10.088;2022-09-09T03:57:20;96344.03;;;17.55;60.34
20971;BME280;10644;48.834;10.088;2022-09-09T03:59:58;96357.19;;;17.82;59.69
20971;BME280;10644;48.834;10.088;2022-09-09T04:02:30;96367.84;;;18.07;59.20
20971;BME280;10644;48.834;10.088;2022-09-09T04:05:06;96350.94;;;18.32;58.54
20971;BME280;10644;48.834;10.088;2022-09-09T04:07:39;96358.03;;;18.49;58.47
20971;BME280;10644;48.834;10.088;2022-09-09T04:10:08;96361.00;;;18.63;58.22
20971;BME280;10644;48.834;10.088;2022-09-09T04:12:34;96368.38;;;18.68;57.53
20971;BME280;10644;48.834;10.088;2022-09-09T04:15:15;96358.13;;;18.66;57.56
20971;BME280;10644;48.834;10.088;2022-09-09T04:17:56;96349.56;;;18.56;57.73
20971;BME280;10644;48.834;10.088;2022-09-09T04:20:25;96358.19;;;18.38;58.25
20971;BME280;10644;48.834;10.088;2022-09-09T04:22:55;96359.09;;;18.18;58.53
20971;BME280;10644;48.834;10.088;2022-09-09T04:25:22;96366.47;;;18.13;58.09
20971;BME280;10644;48.834;10.088;2022-09-09T04:27:59;96363.47;;;18.17;58.64
20971;BME280;10644;48.834;10.088;2022-09-09T04:30:32;96365.50;;;18.14;58.61
20971;BME280;10644;48.834;10.088;2022-09-09T04:33:02;96374.09;;;17.86;59.46
20971;BME280;10644;48.834;10.088;2022-09-09T04:35:28;96366.72;;;17.91;59.11
20971;BME280;10644;48.834;10.088;2022-09-09T04:37:57;96374.38;;;17.83;59.59
20971;BME280;10644;48.834;10.088;2022-09-09T04:40:26;96380.63;;;17.71;60.08
20971;BME280;10644;48.834;10.088;2022-09-09T04:43:01;96375.00;;;17.56;60.35
20971;BME280;10644;48.834;10.088;2022-09-09T04:45:26;96368.97;;;17.56;60.48
20971;BME280;10644;48.834;10.088;2022-09-09T04:47:59;96369.63;;;17.39;60.81
20971;BME280;10644;48.834;10.088;2022-09-09T04:50:29;96375.09;;;17.45;60.89
20971;BME280;10644;48.834;10.088;2022-09-09T04:53:04;96378.34;;;17.38;61.62
20971;BME280;10644;48.834;10.088;2022-09-09T04:55:34;96376.94;;;17.34;61.26
20971;BME280;10644;48.834;10.088;2022-09-09T04:58:08;96379.44;;;17.45;61.28
20971;BME280;10644;48.834;10.088;2022-09-09T05:00:37;96373.25;;;17.76;60.57
20971;BME280;10644;48.834;10.088;2022-09-09T05:03:06;96369.19;;;17.92;59.89
20971;BME280;10644;48.834;10.088;2022-09-09T05:05:34;96368.66;;;18.08;59.45
20971;BME280;10644;48.834;10.088;2022-09-09T05:08:04;96370.56;;;18.25;59.13
20971;BME280;10644;48.834;10.088;2022-09-09T05:10:37;96369.91;;;18.42;58.97
20971;BME280;10644;48.834;10.088;2022-09-09T05:13:04;96373.31;;;18.52;58.85
20971;BME280;10644;48.834;10.088;2022-09-09T05:15:30;96376.44;;;18.27;59.13
20971;BME280;10644;48.834;10.088;2022-09-09T05:18:00;96380.81;;;18.17;59.73
20971;BME280;10644;48.834;10.088;2022-09-09T05:20:26;96371.09;;;18.00;60.45
20971;BME280;10644;48.834;10.088;2022-09-09T05:22:55;96371.41;;;18.06;60.05
20971;BME280;10644;48.834;10.088;2022-09-09T05:25:33;96379.84;;;17.99;60.77
20971;BME280;10644;48.834;10.088;2022-09-09T05:27:59;96373.25;;;17.76;61.32
20971;BME280;10644;48.834;10.088;2022-09-09T05:30:24;96383.75;;;17.65;61.88
20971;BME280;10644;48.834;10.088;2022-09-09T05:32:56;96369.59;;;17.78;61.47
20971;BME280;10644;48.834;10.088;2022-09-09T05:35:21;96378.69;;;17.63;62.13
20971;BME280;10644;48.834;10.088;2022-09-09T05:37:48;96383.88;;;17.63;62.70
20971;BME280;10644;48.834;10.088;2022-09-09T05:40:17;96388.09;;;17.64;62.28
20971;BME280;10644;48.834;10.088;2022-09-09T05:42:59;96383.63;;;17.76;62.15
20971;BME280;10644;48.834;10.088;2022-09-09T05:45:26;96394.00;;;17.76;62.41
20971;BME280;10644;48.834;10.088;2022-09-09T05:47:52;96390.69;;;17.74;62.45
20971;BME280;10644;48.834;10.088;2022-09-09T05:50:27;96398.41;;;18.04;61.85
20971;BME280;10644;48.834;10.088;2022-09-09T05:52:54;96392.69;;;18.10;61.79
20971;BME280;10644;48.834;10.088;2022-09-09T05:55:31;96386.41;;;18.22;61.58
20971;BME280;10644;48.834;10.088;2022-09-09T05:57:59;96386.41;;;18.41;60.90
20971;BME280;10644;48.834;10.088;2022-09-09T06:00:26;96381.50;;;18.57;60.32
20971;BME280;10644;48.834;10.088;2022-09-09T06:03:03;96396.25;;;18.66;60.26
20971;BME280;10644;48.834;10.088;2022-09-09T06:05:28;96388.47;;;18.47;61.92
20971;BME280;10644;48.834;10.088;2022-09-09T06:08:05;96387.50;;;18.67;61.47
20971;BME280;10644;48.834;10.088;2022-09-09T06:10:38;96376.81;;;18.70;60.77
20971;BME280;10644;48.834;10.088;2022-09-09T06:13:20;96382.91;;;18.97;60.01
20971;BME280;10644;48.834;10.088;2022-09-09T06:16:01;96369.31;;;19.13;60.04
20971;BME280;10644;48.834;10.088;2022-09-09T06:18:27;96373.72;;;19.12;60.20
20971;BME280;10644;48.834;10.088;2022-09-09T06:21:20;96379.44;;;19.16;60.43
20971;BME280;10644;48.834;10.088;2022-09-09T06:23:56;96374.56;;;19.03;60.66
20971;BME280;10644;48.834;10.088;2022-09-09T06:26:48;96374.25;;;19.06;60.79
20971;BME280;10644;48.834;10.088;2022-09-09T06:29:20;96360.81;;;19.20;60.55
20971;BME280;10644;48.834;10.088;2022-09-09T06:31:56;96368.75;;;19.28;60.26
20971;BME280;10644;48.834;10.088;2022-09-09T06:34:39;96368.75;;;19.28;60.26
20971;BME280;10644;48.834;10.088;2022-09-09T06:37:05;96365.34;;;19.55;59.99
20971;BME280;10644;48.834;10.088;2022-09-09T06:39:32;96363.47;;;19.74;59.35
20971;BME280;10644;48.834;10.088;2022-09-09T06:42:05;96364.31;;;20.10;59.16
20971;BME280;10644;48.834;10.088;2022-09-09T06:44:31;96354.94;;;20.34;58.55
20971;BME280;10644;48.834;10.088;2022-09-09T06:47:09;96363.91;;;20.57;57.97
20971;BME280;10644;48.834;10.088;2022-09-09T06:49:53;96370.25;;;20.80;57.41
20971;BME280;10644;48.834;10.088;2022-09-09T06:52:26;96370.63;;;20.85;56.48
20971;BME280;10644;48.834;10.088;2022-09-09T06:55:18;96377.19;;;20.89;55.99
20971;BME280;10644;48.834;10.088;2022-09-09T06:57:43;96371.44;;;20.86;55.91
20971;BME280;10644;48.834;10.088;2022-09-09T07:00:09;96379.53;;;21.00;56.13
20971;BME280;10644;48.834;10.088;2022-09-09T07:02:36;96378.47;;;21.11;55.51
20971;BME280;10644;48.834;10.088;2022-09-09T07:05:36;96380.66;;;21.23;55.48
20971;BME280;10644;48.834;10.088;2022-09-09T07:08:04;96372.34;;;21.28;55.43
20971;BME280;10644;48.834;10.088;2022-09-09T07:10:44;96380.03;;;21.29;55.47
20971;BME280;10644;48.834;10.088;2022-09-09T07:13:13;96378.69;;;21.25;55.47
20971;BME280;10644;48.834;10.088;2022-09-09T07:15:47;96374.34;;;21.34;55.20
20971;BME280;10644;48.834;10.088;2022-09-09T07:18:25;96365.91;;;21.40;55.17
20971;BME280;10644;48.834;10.088;2022-09-09T07:20:57;96364.47;;;21.45;55.07
20971;BME280;10644;48.834;10.088;2022-09-09T07:23:24;96364.72;;;21.68;54.54
20971;BME280;10644;48.834;10.088;2022-09-09T07:26:22;96384.66;;;21.77;54.10
20971;BME280;10644;48.834;10.088;2022-09-09T07:28:59;96386.97;;;21.88;54.25
20971;BME280;10644;48.834;10.088;2022-09-09T07:31:59;96387.66;;;21.98;53.01
20971;BME280;10644;48.834;10.088;2022-09-09T07:34:34;96379.53;;;22.09;53.13
20971;BME280;10644;48.834;10.088;2022-09-09T07:36:59;96374.63;;;22.30;52.15
20971;BME280;10644;48.834;10.088;2022-09-09T07:39:48;96380.19;;;22.35;51.03
20971;BME280;10644;48.834;10.088;2022-09-09T07:42:33;96386.41;;;22.26;51.46
20971;BME280;10644;48.834;10.088;2022-09-09T07:45:11;96392.91;;;22.14;51.75
20971;BME280;10644;48.834;10.088;2022-09-09T07:47:46;96386.69;;;21.99;51.90
20971;BME280;10644;48.834;10.088;2022-09-09T07:50:20;96384.38;;;21.96;51.11
20971;BME280;10644;48.834;10.088;2022-09-09T07:53:06;96388.34;;;22.08;51.13
20971;BME280;10644;48.834;10.088;2022-09-09T07:55:43;96397.13;;;22.07;50.67
20971;BME280;10644;48.834;10.088;2022-09-09T07:58:11;96379.03;;;22.13;50.53
20971;BME280;10644;48.834;10.088;2022-09-09T08:00:43;96384.59;;;22.18;49.93
20971;BME280;10644;48.834;10.088;2022-09-09T08:03:17;96375.63;;;22.29;50.13
20971;BME280;10644;48.834;10.088;2022-09-09T08:06:04;96385.75;;;22.40;49.86
20971;BME280;10644;48.834;10.088;2022-09-09T08:08:32;96394.94;;;22.44;50.12
20971;BME280;10644;48.834;10.088;2022-09-09T08:11:11;96392.31;;;22.52;49.62
20971;BME280;10644;48.834;10.088;2022-09-09T08:13:43;96399.34;;;22.59;49.48
20971;BME280;10644;48.834;10.088;2022-09-09T08:19:08;96405.06;;;22.63;48.80
20971;BME280;10644;48.834;10.088;2022-09-09T08:21:36;96413.22;;;22.60;49.00
20971;BME280;10644;48.834;10.088;2022-09-09T08:24:06;96397.03;;;22.40;49.11
20971;BME280;10644;48.834;10.088;2022-09-09T08:26:37;96404.09;;;22.48;49.46
20971;BME280;10644;48.834;10.088;2022-09-09T08:29:13;96415.84;;;22.68;49.44
20971;BME280;10644;48.834;10.088;2022-09-09T08:31:55;96401.81;;;22.77;49.50
20971;BME280;10644;48.834;10.088;2022-09-09T08:34:33;96404.88;;;22.72;49.76
20971;BME280;10644;48.834;10.088;2022-09-09T08:37:10;96398.69;;;22.97;49.03
20971;BME280;10644;48.834;10.088;2022-09-09T08:39:36;96412.22;;;23.01;49.01
20971;BME280;10644;48.834;10.088;2022-09-09T08:51:07;96426.94;;;23.18;47.60
20971;BME280;10644;48.834;10.088;2022-09-09T08:53:57;96425.13;;;23.26;48.33
20971;BME280;10644;48.834;10.088;2022-09-09T08:56:40;96420.28;;;23.62;48.38
20971;BME280;10644;48.834;10.088;2022-09-09T08:59:15;96432.00;;;23.74;48.34
20971;BME280;10644;48.834;10.088;2022-09-09T09:09:00;96429.53;;;23.26;49.40
20971;BME280;10644;48.834;10.088;2022-09-09T09:11:40;96432.13;;;23.34;49.38
20971;BME280;10644;48.834;10.088;2022-09-09T09:14:23;96429.13;;;23.53;49.40
20971;BME280;10644;48.834;10.088;2022-09-09T09:16:58;96422.84;;;23.70;49.09
20971;BME280;10644;48.834;10.088;2022-09-09T09:19:24;96419.81;;;24.05;48.48
20971;BME280;10644;48.834;10.088;2022-09-09T09:24:45;96405.75;;;23.98;47.70
20971;BME280;10644;48.834;10.088;2022-09-09T09:30:12;96413.81;;;23.88;47.68
20971;BME280;10644;48.834;10.088;2022-09-09T09:32:39;96400.19;;;24.01;46.74
20971;BME280;10644;48.834;10.088;2022-09-09T09:35:12;96403.66;;;24.24;46.12
20971;BME280;10644;48.834;10.088;2022-09-09T09:37:41;96399.72;;;23.97;47.07
20971;BME280;10644;48.834;10.088;2022-09-09T09:40:13;96418.47;;;24.09;46.94
20971;BME280;10644;48.834;10.088;2022-09-09T09:42:57;96411.94;;;24.05;47.51
20971;BME280;10644;48.834;10.088;2022-09-09T09:48:30;96419.50;;;24.00;47.71
20971;BME280;10644;48.834;10.088;2022-09-09T09:51:08;96406.97;;;24.18;47.70
20971;BME280;10644;48.834;10.088;2022-09-09T09:57:22;96404.50;;;24.69;47.02
20971;BME280;10644;48.834;10.088;2022-09-09T10:02:56;96398.50;;;24.98;46.17
20971;BME280;10644;48.834;10.088;2022-09-09T10:05:24;96392.28;;;24.99;45.83
20971;BME280;10644;48.834;10.088;2022-09-09T10:10:55;96394.84;;;25.21;44.96
20971;BME280;10644;48.834;10.088;2022-09-09T10:27:50;96381.88;;;24.91;44.15
20971;BME280;10644;48.834;10.088;2022-09-09T10:36:49;96389.28;;;24.65;45.06
20971;BME280;10644;48.834;10.088;2022-09-09T10:39:39;96387.66;;;24.64;45.12
20971;BME280;10644;48.834;10.088;2022-09-09T10:42:14;96380.88;;;24.92;44.92
20971;BME280;10644;48.834;10.088;2022-09-09T10:48:13;96378.53;;;24.97;45.18
20971;BME280;10644;48.834;10.088;2022-09-09T10:50:56;96372.69;;;25.09;44.78
20971;BME280;10644;48.834;10.088;2022-09-09T10:53:53;96379.44;;;25.04;45.30
20971;BME280;10644;48.834;10.088;2022-09-09T10:56:31;96372.38;;;24.90;45.57
20971;BME280;10644;48.834;10.088;2022-09-09T10:59:06;96379.22;;;25.28;44.55
20971;BME280;10644;48.834;10.088;2022-09-09T11:04:19;96370.38;;;25.58;43.09
20971;BME280;10644;48.834;10.088;2022-09-09T11:06:52;96370.69;;;25.69;42.74
20971;BME280;10644;48.834;10.088;2022-09-09T11:09:30;96370.06;;;25.82;42.51
20971;BME280;10644;48.834;10.088;2022-09-09T11:12:00;96370.13;;;26.03;42.07
20971;BME280;10644;48.834;10.088;2022-09-09T11:14:44;96369.25;;;26.17;41.64
20971;BME280;10644;48.834;10.088;2022-09-09T11:20:27;96370.09;;;25.53;42.93
20971;BME280;10644;48.834;10.088;2022-09-09T11:23:14;96366.38;;;25.33;43.64
20971;BME280;10644;48.834;10.088;2022-09-09T11:26:05;96350.56;;;25.41;41.83
20971;BME280;10644;48.834;10.088;2022-09-09T11:40:32;96365.34;;;25.19;38.63
20971;BME280;10644;48.834;10.088;2022-09-09T11:43:10;96368.66;;;25.36;39.54
20971;BME280;10644;48.834;10.088;2022-09-09T11:45:58;96371.06;;;25.23;39.14
20971;BME280;10644;48.834;10.088;2022-09-09T11:49:00;96356.97;;;25.38;39.39
20971;BME280;10644;48.834;10.088;2022-09-09T11:51:51;96361.22;;;25.25;38.65
20971;BME280;10644;48.834;10.088;2022-09-09T11:57:35;96349.47;;;26.00;38.60
20971;BME280;10644;48.834;10.088;2022-09-09T12:03:35;96353.38;;;26.46;37.95
20971;BME280;10644;48.834;10.088;2022-09-09T12:06:32;96347.38;;;26.73;37.54
20971;BME280;10644;48.834;10.088;2022-09-09T12:18:00;96336.00;;;26.93;36.55
20971;BME280;10644;48.834;10.088;2022-09-09T12:35:26;96326.16;;;27.36;33.63
20971;BME280;10644;48.834;10.088;2022-09-09T12:38:02;96334.84;;;27.30;33.97
20971;BME280;10644;48.834;10.088;2022-09-09T12:40:37;96328.75;;;27.23;33.52
20971;BME280;10644;48.834;10.088;2022-09-09T12:43:25;96338.06;;;26.98;33.30
20971;BME280;10644;48.834;10.088;2022-09-09T12:46:02;96332.63;;;26.72;34.24
20971;BME280;10644;48.834;10.088;2022-09-09T12:48:36;96354.50;;;26.79;33.71
20971;BME280;10644;48.834;10.088;2022-09-09T12:51:05;96381.16;;;26.34;36.38
20971;BME280;10644;48.834;10.088;2022-09-09T12:53:37;96379.50;;;25.76;38.65
20971;BME280;10644;48.834;10.088;2022-09-09T12:56:32;96390.53;;;25.43;40.03
20971;BME280;10644;48.834;10.088;2022-09-09T12:59:24;96394.59;;;25.60;39.24
20971;BME280;10644;48.834;10.088;2022-09-09T13:01:58;96395.78;;;25.43;39.76
20971;BME280;10644;48.834;10.088;2022-09-09T13:04:33;96383.50;;;25.29;39.36
20971;BME280;10644;48.834;10.088;2022-09-09T13:07:13;96389.25;;;25.39;39.39
20971;BME280;10644;48.834;10.088;2022-09-09T13:16:38;96391.72;;;25.40;39.08
20971;BME280;10644;48.834;10.088;2022-09-09T13:19:16;96385.75;;;25.46;39.11
20971;BME280;10644;48.834;10.088;2022-09-09T13:37:30;96348.44;;;25.94;39.46
20971;BME280;10644;48.834;10.088;2022-09-09T13:40:29;96352.28;;;26.13;39.16
20971;BME280;10644;48.834;10.088;2022-09-09T13:42:58;96347.25;;;26.39;37.68
20971;BME280;10644;48.834;10.088;2022-09-09T13:45:57;96346.25;;;26.82;37.15
20971;BME280;10644;48.834;10.088;2022-09-09T13:48:24;96341.41;;;26.85;36.65
20971;BME280;10644;48.834;10.088;2022-09-09T13:51:33;96345.16;;;26.70;36.31
20971;BME280;10644;48.834;10.088;2022-09-09T13:54:26;96335.50;;;26.77;36.21
20971;BME280;10644;48.834;10.088;2022-09-09T13:57:03;96328.34;;;26.50;36.47
20971;BME280;10644;48.834;10.088;2022-09-09T13:59:49;96334.88;;;26.54;36.90
20971;BME280;10644;48.834;10.088;2022-09-09T14:02:21;96326.00;;;26.55;36.25
20971;BME280;10644;48.834;10.088;2022-09-09T14:05:14;96333.00;;;26.48;36.36
20971;BME280;10644;48.834;10.088;2022-09-09T14:07:41;96311.63;;;26.30;36.20
20971;BME280;10644;48.834;10.088;2022-09-09T14:10:42;96325.09;;;26.48;36.79
20971;BME280;10644;48.834;10.088;2022-09-09T14:13:34;96327.72;;;26.69;36.09
20971;BME280;10644;48.834;10.088;2022-09-09T14:15:59;96328.97;;;26.73;35.81
20971;BME280;10644;48.834;10.088;2022-09-09T14:18:25;96327.28;;;26.65;36.14
20971;BME280;10644;48.834;10.088;2022-09-09T14:20:54;96318.53;;;26.86;35.62
20971;BME280;10644;48.834;10.088;2022-09-09T14:23:35;96319.03;;;26.96;35.82
20971;BME280;10644;48.834;10.088;2022-09-09T14:26:02;96322.41;;;26.90;35.77
20971;BME280;10644;48.834;10.088;2022-09-09T14:28:30;96331.25;;;26.55;35.89
20971;BME280;10644;48.834;10.088;2022-09-09T14:31:25;96311.34;;;26.04;36.93
20971;BME280;10644;48.834;10.088;2022-09-09T14:33:53;96326.72;;;26.07;37.03
20971;BME280;10644;48.834;10.088;2022-09-09T14:36:31;96317.09;;;25.93;37.67
20971;BME280;10644;48.834;10.088;2022-09-09T14:39:29;96318.16;;;25.98;37.57
20971;BME280;10644;48.834;10.088;2022-09-09T14:42:14;96309.91;;;26.01;37.47
20971;BME280;10644;48.834;10.088;2022-09-09T14:44:45;96312.97;;;26.05;37.65
20971;BME280;10644;48.834;10.088;2022-09-09T14:47:12;96306.66;;;26.20;37.48
20971;BME280;10644;48.834;10.088;2022-09-09T14:49:53;96308.47;;;26.62;36.87
20971;BME280;10644;48.834;10.088;2022-09-09T14:52:19;96311.06;;;26.55;37.21
20971;BME280;10644;48.834;10.088;2022-09-09T14:54:46;96309.66;;;26.38;37.80
20971;BME280;10644;48.834;10.088;2022-09-09T14:57:12;96305.34;;;26.31;37.63
20971;BME280;10644;48.834;10.088;2022-09-09T14:59:41;96313.47;;;26.36;37.89
20971;BME280;10644;48.834;10.088;2022-09-09T15:02:25;96312.72;;;26.21;38.38
20971;BME280;10644;48.834;10.088;2022-09-09T15:04:52;96301.78;;;26.38;37.84
20971;BME280;10644;48.834;10.088;2022-09-09T15:07:24;96310.03;;;26.35;37.95
20971;BME280;10644;48.834;10.088;2022-09-09T15:09:57;96306.47;;;26.22;38.51
20971;BME280;10644;48.834;10.088;2022-09-09T15:12:24;96320.75;;;26.13;38.39
20971;BME280;10644;48.834;10.088;2022-09-09T15:14:50;96319.31;;;25.96;38.41
20971;BME280;10644;48.834;10.088;2022-09-09T15:17:19;96311.84;;;25.93;37.81
20971;BME280;10644;48.834;10.088;2022-09-09T15:20:08;96311.91;;;25.99;38.54
20971;BME280;10644;48.834;10.088;2022-09-09T15:22:37;96319.59;;;26.22;38.47
20971;BME280;10644;48.834;10.088;2022-09-09T15:25:03;96312.03;;;26.33;38.55
20971;BME280;10644;48.834;10.088;2022-09-09T15:27:58;96316.53;;;26.39;38.46
20971;BME280;10644;48.834;10.088;2022-09-09T15:30:25;96314.34;;;26.64;37.40
20971;BME280;10644;48.834;10.088;2022-09-09T15:32:58;96314.34;;;26.64;36.22
20971;BME280;10644;48.834;10.088;2022-09-09T15:35:35;96315.81;;;26.73;35.31
20971;BME280;10644;48.834;10.088;2022-09-09T15:38:06;96321.72;;;26.33;35.84
20971;BME280;10644;48.834;10.088;2022-09-09T15:40:31;96307.34;;;26.29;35.90
20971;BME280;10644;48.834;10.088;2022-09-09T15:43:20;96322.31;;;26.28;35.83
20971;BME280;10644;48.834;10.088;2022-09-09T15:45:58;96314.09;;;26.38;35.86
20971;BME280;10644;48.834;10.088;2022-09-09T15:48:31;96313.84;;;26.54;35.58
20971;BME280;10644;48.834;10.088;2022-09-09T15:51:02;96310.84;;;26.36;35.33
20971;BME280;10644;48.834;10.088;2022-09-09T15:53:35;96312.47;;;26.16;35.33
20971;BME280;10644;48.834;10.088;2022-09-09T15:56:14;96312.97;;;26.05;35.78
20971;BME280;10644;48.834;10.088;2022-09-09T15:58:39;96310.53;;;25.89;35.49
20971;BME280;10644;48.834;10.088;2022-09-09T16:01:07;96307.28;;;26.01;35.60
20971;BME280;10644;48.834;10.088;2022-09-09T16:03:43;96313.09;;;26.18;35.28
20971;BME280;10644;48.834;10.088;2022-09-09T16:06:14;96311.84;;;26.14;35.42
20971;BME280;10644;48.834;10.088;2022-09-09T16:08:52;96300.72;;;26.12;35.85
20971;BME280;10644;48.834;10.088;2022-09-09T16:11:26;96314.09;;;26.17;35.95
20971;BME280;10644;48.834;10.088;2022-09-09T16:13:53;96304.03;;;25.99;35.47
20971;BME280;10644;48.834;10.088;2022-09-09T16:16:21;96306.03;;;25.97;35.41
20971;BME280;10644;48.834;10.088;2022-09-09T16:18:49;96301.78;;;25.82;35.72
20971;BME280;10644;48.834;10.088;2022-09-09T16:21:42;96306.41;;;25.80;36.22
20971;BME280;10644;48.834;10.088;2022-09-09T16:24:18;96314.94;;;25.67;35.91
20971;BME280;10644;48.834;10.088;2022-09-09T16:26:45;96305.38;;;25.60;35.97
20971;BME280;10644;48.834;10.088;2022-09-09T16:29:35;96310.34;;;25.55;36.58
20971;BME280;10644;48.834;10.088;2022-09-09T16:32:03;96311.72;;;25.51;36.44
20971;BME280;10644;48.834;10.088;2022-09-09T16:34:36;96306.09;;;25.54;36.50